Arcadia, Michigan
Current Conditions -  °F | °C
As of 5:15 AM on Sunday 25 Jan 2015 (Local Time) from KFKS Reporting Station
Scattered Clouds Scattered Clouds  
Wind Chill: 12°   Ceiling: Unl
Heat Index: 19°   Visibility: 10mi
Dew Point: 13°   Wind: 5mph
Humidity: 78%   Direction: 40°NE
Pressure: 29.86"   Gusts: 20mph
Location:  44.49°N, 86.23°W
Report Text: KFKS 251015Z AUTO 04004G17KT 10SM SCT018 M07/M10 A2986 RMK AO2 T10731105
Loading
Personal Weather Stations






























Interactive Weather Map New forecast layout! Learn more

10-Day Weather Forecast

Advertisements
Track Severe Weather on mobile